createdAt,value
2022-11-24T00:03:09.789Z,85.50146
2022-11-24T00:08:11.555Z,83.64438
2022-11-24T00:13:13.212Z,84.06507
2022-11-24T00:18:15.229Z,82.48078
2022-11-24T00:23:16.894Z,84.79362
2022-11-24T00:28:18.643Z,85.1849
2022-11-24T00:33:20.438Z,87.7427
2022-11-24T00:38:22.250Z,86.43147
2022-11-24T00:43:24.044Z,87.4343
2022-11-24T00:48:26.066Z,87.43025
2022-11-24T00:53:27.845Z,86.79049
2022-11-24T00:58:29.629Z,87.77944
2022-11-24T01:03:31.393Z,88.85144
2022-11-24T01:08:33.150Z,88.13648
2022-11-24T01:13:34.943Z,89.11577
2022-11-24T01:18:36.651Z,90.2013
2022-11-24T01:23:38.119Z,90.1294
2022-11-24T01:28:46.363Z,90.76268
2022-11-24T01:33:49.065Z,90.05319
2022-11-24T01:38:50.810Z,91.84758
2022-11-24T01:43:52.495Z,87.62265
2022-11-24T01:48:54.461Z,89.72365
2022-11-24T01:53:56.231Z,92.1894
2022-11-24T01:58:58.006Z,91.06109
2022-11-24T02:03:59.856Z,88.10966
2022-11-24T02:09:01.669Z,87.761
2022-11-24T02:14:03.452Z,91.07435
2022-11-24T02:19:05.476Z,89.10672
2022-11-24T02:24:07.405Z,93.20264
2022-11-24T02:29:09.173Z,93.26846
2022-11-24T02:34:10.977Z,93.97186
2022-11-24T02:39:12.775Z,92.04117
2022-11-24T02:44:14.677Z,93.44545
2022-11-24T02:49:16.792Z,94.26211
2022-11-24T02:54:18.535Z,93.64881
2022-11-24T02:59:20.313Z,92.65551
2022-11-24T03:04:22.233Z,93.01436
2022-11-24T03:09:24.024Z,89.14129
2022-11-24T03:14:25.917Z,95.15466
2022-11-24T03:19:28.248Z,94.61394
2022-11-24T03:24:30.097Z,93.99135
2022-11-24T03:29:31.909Z,95.18022
2022-11-24T03:34:33.931Z,92.0989
2022-11-24T03:39:35.919Z,90.53815
2022-11-24T03:44:37.387Z,90.88785
2022-11-24T03:49:39.045Z,90.20385
2022-11-24T03:54:40.651Z,88.23343
2022-11-24T03:59:42.275Z,86.31691
2022-11-24T04:04:49.563Z,84.07008
2022-11-24T04:09:51.237Z,83.40504
2022-11-24T04:14:52.845Z,83.42145
2022-11-24T04:19:54.674Z,81.88666
2022-11-24T04:24:56.346Z,78.25563
2022-11-24T04:29:57.900Z,76.52642
2022-11-24T04:34:59.603Z,77.41585
2022-11-24T04:40:01.144Z,75.70796
2022-11-24T04:45:02.687Z,75.09934
2022-11-24T04:50:04.412Z,72.95772
2022-11-24T04:55:05.869Z,72.86334
2022-11-24T05:00:07.397Z,73.0314
2022-11-24T05:05:08.903Z,70.2782
2022-11-24T05:10:10.571Z,71.05277
2022-11-24T05:15:12.255Z,71.07504
2022-11-24T05:20:14.128Z,66.86103
2022-11-24T05:25:15.677Z,66.12858
2022-11-24T05:30:17.376Z,62.26033
2022-11-24T05:35:18.931Z,64.22925
2022-11-24T05:40:20.389Z,60.5019
2022-11-24T05:45:21.837Z,63.09203
2022-11-24T05:50:23.497Z,59.46219
2022-11-24T05:55:25.005Z,61.45751
2022-11-24T06:00:26.768Z,61.07029
2022-11-24T06:05:28.335Z,58.19672
2022-11-24T06:10:29.845Z,59.08239
2022-11-24T06:15:31.469Z,59.93446
2022-11-24T06:20:33.323Z,57.84794
2022-11-24T06:25:34.933Z,54.81624
2022-11-24T06:30:36.522Z,55.33904
2022-11-24T06:35:38.024Z,56.22718
2022-11-24T06:40:39.510Z,54.58653
2022-11-24T06:45:41.036Z,54.09148
2022-11-24T06:50:42.865Z,53.21598
2022-11-24T06:55:44.392Z,51.17287
2022-11-24T07:00:46.110Z,52.81684
2022-11-24T07:05:47.715Z,49.90615
2022-11-24T07:10:49.507Z,50.32588
2022-11-24T07:15:51.022Z,49.02157
2022-11-24T07:20:52.754Z,45.87234
2022-11-24T07:25:54.419Z,47.31113
2022-11-24T07:30:55.995Z,48.41502
2022-11-24T07:35:57.719Z,47.65844
2022-11-24T07:40:59.183Z,49.33878
2022-11-24T07:46:00.972Z,49.43983
2022-11-24T07:51:02.800Z,50.30786
2022-11-24T07:56:04.536Z,51.18133
2022-11-24T08:01:06.315Z,50.28671
2022-11-24T08:06:23.562Z,46.74036
2022-11-24T08:11:27.452Z,45.43552
2022-11-24T08:16:29.279Z,44.85478
2022-11-24T08:21:31.343Z,44.16133
2022-11-24T08:26:33.075Z,42.99059
2022-11-24T08:31:35.013Z,44.31354
2022-11-24T08:36:36.947Z,44.65108
2022-11-24T08:41:38.468Z,45.45913
2022-11-24T08:46:40.190Z,42.2984
2022-11-24T08:51:42.160Z,42.61461
2022-11-24T08:56:43.667Z,40.14081
2022-11-24T09:01:45.339Z,40.89497
2022-11-24T09:06:47.061Z,42.03818
2022-11-24T09:11:48.842Z,39.30311
2022-11-24T09:16:50.515Z,41.15677
2022-11-24T09:21:52.522Z,40.56345
2022-11-24T09:26:54.242Z,40.14631
2022-11-24T09:31:55.938Z,37.70181
2022-11-24T09:36:57.641Z,38.25457
2022-11-24T09:41:59.455Z,37.60755
2022-11-24T09:47:01.313Z,37.0228
2022-11-24T09:52:03.361Z,36.08571
2022-11-24T09:57:05.167Z,36.46602
2022-11-24T10:02:07.044Z,34.23562
2022-11-24T10:07:08.958Z,36.45235
2022-11-24T10:12:10.535Z,36.91609
2022-11-24T10:17:13.052Z,34.98202
2022-11-24T10:22:15.051Z,32.77287
2022-11-24T10:27:16.860Z,33.03577
2022-11-24T10:32:19.245Z,35.82748
2022-11-24T10:37:28.902Z,34.85947
2022-11-24T10:42:31.480Z,36.31395
2022-11-24T10:47:34.836Z,33.534
2022-11-24T10:52:37.465Z,34.70748
2022-11-24T10:57:38.939Z,34.88401
2022-11-24T11:02:41.862Z,38.14106
2022-11-24T11:07:44.815Z,34.80676
2022-11-24T11:12:47.207Z,34.18827
2022-11-24T11:17:48.786Z,36.80539
2022-11-24T11:22:50.688Z,36.12
2022-11-24T11:27:54.639Z,37.64206
2022-11-24T11:38:29.982Z,37.94688
2022-11-24T11:43:31.447Z,35.30556
2022-11-24T11:48:42.257Z,36.90744
2022-11-24T11:53:45.143Z,36.46988
2022-11-24T11:58:46.661Z,36.21484
2022-11-24T12:03:48.274Z,36.04276
2022-11-24T12:09:18.618Z,34.59291
2022-11-24T12:14:21.725Z,33.52011
2022-11-24T12:19:23.196Z,35.75865
2022-11-24T12:24:25.211Z,36.55586
2022-11-24T12:29:27.992Z,34.02558
2022-11-24T12:34:29.927Z,35.27744
2022-11-24T12:39:31.823Z,35.2403
2022-11-24T12:44:33.691Z,34.80167
2022-11-24T12:49:35.537Z,34.18123
2022-11-24T12:54:38.095Z,36.01188
2022-11-24T12:59:41.247Z,33.05763
2022-11-24T13:04:43.597Z,34.69903
2022-11-24T13:09:45.849Z,35.92157
2022-11-24T13:14:47.585Z,34.88656
2022-11-24T13:19:50.138Z,34.15522
2022-11-24T13:24:56.936Z,35.66602
2022-11-24T13:29:59.405Z,34.01384
2022-11-24T13:35:02.100Z,33.01124
2022-11-24T13:40:04.128Z,34.68378
2022-11-24T13:45:06.294Z,33.67009
2022-11-24T13:50:08.049Z,32.28719
2022-11-24T13:55:11.443Z,34.95442
2022-11-24T14:00:15.332Z,32.14389
2022-11-24T14:05:19.899Z,32.53927
2022-11-24T14:10:24.467Z,32.79838
2022-11-24T14:15:27.019Z,33.12657
2022-11-24T14:20:28.747Z,32.93372
2022-11-24T14:25:34.858Z,32.71173
2022-11-24T14:30:36.607Z,30.38229
2022-11-24T14:35:39.963Z,29.76514
2022-11-24T14:40:43.932Z,30.99768
2022-11-24T14:45:47.084Z,32.82013
2022-11-24T14:50:48.543Z,31.71846
2022-11-24T14:55:52.743Z,32.66395
2022-11-24T15:00:54.500Z,32.25296
2022-11-24T15:05:57.441Z,32.57355
2022-11-24T15:10:59.671Z,32.62598
2022-11-24T15:16:03.121Z,34.02501
2022-11-24T15:21:06.371Z,33.71747
2022-11-24T15:26:11.212Z,33.75701
2022-11-24T15:31:13.077Z,34.13676
2022-11-24T15:36:14.871Z,32.98227
2022-11-24T15:41:17.125Z,34.08275
2022-11-24T15:46:18.755Z,34.75193
2022-11-24T15:51:20.246Z,35.12084
2022-11-24T15:56:23.031Z,35.55257
2022-11-24T16:01:25.622Z,34.76931
2022-11-24T16:06:27.467Z,36.48826
2022-11-24T16:11:30.385Z,37.15743
2022-11-24T16:16:32.551Z,37.84094
2022-11-24T16:21:34.283Z,38.13692
2022-11-24T16:26:38.328Z,38.67475
2022-11-24T16:31:40.180Z,38.03996
2022-11-24T16:36:43.408Z,38.56207
2022-11-24T16:41:46.549Z,38.83105
2022-11-24T16:46:52.220Z,40.13163
2022-11-24T16:51:53.858Z,41.25078
2022-11-24T16:56:56.996Z,40.34091
2022-11-24T17:01:58.716Z,40.38365
2022-11-24T17:07:00.400Z,41.30035
2022-11-24T17:12:02.259Z,42.63397
2022-11-24T17:17:03.956Z,42.31482
2022-11-24T17:22:06.361Z,44.59163
2022-11-24T17:27:08.210Z,44.62813
2022-11-24T17:32:13.255Z,43.94312
2022-11-24T17:37:14.954Z,45.018
2022-11-24T17:42:16.702Z,45.32185
2022-11-24T17:47:19.384Z,45.89846
2022-11-24T17:52:21.763Z,45.19539
2022-11-24T17:57:23.850Z,47.04421
2022-11-24T18:02:27.437Z,48.08762
2022-11-24T18:07:30.916Z,47.46613
2022-11-24T18:12:33.323Z,48.11652
2022-11-24T18:17:35.345Z,47.82746
2022-11-24T18:23:04.147Z,48.45725
2022-11-24T18:28:11.478Z,49.89044
2022-11-24T18:33:13.566Z,49.57667
2022-11-24T18:38:20.881Z,50.50088
2022-11-24T18:43:23.057Z,51.1176
2022-11-24T18:48:25.030Z,50.9981
2022-11-24T18:53:28.720Z,51.09652
2022-11-24T18:58:32.906Z,51.94712
2022-11-24T19:03:34.897Z,51.40351
2022-11-24T19:08:36.843Z,52.2831
2022-11-24T19:13:40.416Z,53.14213
2022-11-24T19:18:41.843Z,53.22563
2022-11-24T19:23:43.431Z,55.55241
2022-11-24T19:28:47.260Z,54.92202
2022-11-24T19:33:49.168Z,55.53729
2022-11-24T19:38:50.906Z,62.04003
2022-11-24T19:43:52.578Z,61.93713
2022-11-24T19:48:54.076Z,60.06363
2022-11-24T19:53:56.678Z,58.3917
2022-11-24T19:59:02.654Z,56.95377
2022-11-24T20:04:05.705Z,56.21691
2022-11-24T20:09:08.787Z,57.46774
2022-11-24T20:14:12.858Z,57.16198
2022-11-24T20:19:14.607Z,56.37992
2022-11-24T20:24:16.180Z,57.6578
2022-11-24T20:29:20.093Z,56.59877
2022-11-24T20:34:22.671Z,58.29381
2022-11-24T20:39:25.039Z,62.2581
2022-11-24T20:44:26.851Z,62.34375
2022-11-24T20:49:29.848Z,61.40882
2022-11-24T20:54:38.084Z,63.023
2022-11-24T20:59:42.189Z,62.11875
2022-11-24T21:04:43.658Z,60.45289
2022-11-24T21:09:47.276Z,60.17434
2022-11-24T21:14:48.850Z,59.84713
2022-11-24T21:19:54.781Z,59.64612
2022-11-24T21:25:08.504Z,60.80591
2022-11-24T21:30:10.425Z,61.61919
2022-11-24T21:35:13.154Z,61.46752
2022-11-24T21:40:15.939Z,59.32327
2022-11-24T21:45:20.235Z,59.31252
2022-11-24T21:50:23.082Z,58.95888
2022-11-24T21:55:25.311Z,58.37059
2022-11-24T22:00:28.997Z,57.77068
2022-11-24T22:05:32.254Z,59.21049
2022-11-24T22:10:35.155Z,59.53498
2022-11-24T22:15:38.304Z,58.41931
2022-11-24T22:20:40.262Z,58.91841
2022-11-24T22:25:42.363Z,59.93348
2022-11-24T22:30:45.134Z,60.08564
2022-11-24T22:35:46.818Z,59.31285
2022-11-24T22:40:48.339Z,59.28054
2022-11-24T22:45:50.112Z,60.10534
2022-11-24T22:50:51.727Z,61.07013
2022-11-24T22:55:53.477Z,60.46747
2022-11-24T23:00:55.385Z,60.63725
2022-11-24T23:05:57.027Z,60.45531
2022-11-24T23:10:58.682Z,61.95345
2022-11-24T23:16:00.244Z,61.03774
2022-11-24T23:21:01.975Z,60.93264
2022-11-24T23:26:03.414Z,59.39264
2022-11-24T23:31:05.607Z,60.2758
2022-11-24T23:36:07.187Z,61.68971
2022-11-24T23:41:08.641Z,61.4873
2022-11-24T23:46:10.301Z,61.1338
2022-11-24T23:51:12.139Z,61.30691
2022-11-24T23:56:13.670Z,62.95933
